Time;durP1;ratioP1;P1;durP2;ratioP2;P2;SDS_P1;SDS_P2;PMS_P1;PMS_P2;Temp;Humidity;BMP_temperature;BMP_pressure;BME280_temperature;BME280_humidity;BME280_pressure;Samples;Min_cycle;Max_cycle;Signal;HPM_P1;HPM_P2
2023/09/11 00:00:59;;;;;;;14.27;12.77;;;24.00;99.90;;;;;;5036697;28;20052;-85
2023/09/11 00:03:24;;;;;;;14.30;12.77;;;24.00;99.90;;;;;;5019771;28;20048;-85
2023/09/11 00:05:50;;;;;;;14.82;13.20;;;24.00;99.90;;;;;;5069648;28;20785;-85
2023/09/11 00:08:16;;;;;;;14.02;12.73;;;23.90;99.90;;;;;;5039354;28;20016;-85
2023/09/11 00:10:41;;;;;;;15.15;13.55;;;23.90;99.90;;;;;;5054186;28;20029;-85
2023/09/11 00:13:07;;;;;;;15.82;13.70;;;24.00;99.90;;;;;;5036389;28;20411;-85
2023/09/11 00:15:34;;;;;;;14.52;13.02;;;24.00;99.90;;;;;;5021441;28;20404;-85
2023/09/11 00:18:00;;;;;;;15.70;14.10;;;23.90;99.90;;;;;;5054122;28;20048;-86
2023/09/11 00:20:26;;;;;;;15.73;13.48;;;23.90;99.90;;;;;;5073651;28;20027;-85
2023/09/11 00:22:52;;;;;;;18.67;14.05;;;23.90;99.90;;;;;;5058681;28;20033;-84
2023/09/11 00:25:17;;;;;;;15.05;13.60;;;23.90;99.90;;;;;;5006643;28;20025;-85
2023/09/11 00:27:43;;;;;;;15.57;14.05;;;23.90;99.90;;;;;;5035911;28;20029;-85
2023/09/11 00:30:09;;;;;;;15.27;13.60;;;23.90;99.90;;;;;;5019645;28;20021;-85
2023/09/11 00:32:35;;;;;;;14.52;12.98;;;23.80;99.90;;;;;;5053278;28;20028;-85
2023/09/11 00:35:01;;;;;;;15.13;12.98;;;23.80;99.90;;;;;;5036164;28;20036;-84
2023/09/11 00:37:26;;;;;;;16.60;14.75;;;23.80;99.90;;;;;;5035738;28;20104;-85
2023/09/11 00:39:52;;;;;;;16.00;13.50;;;23.80;99.90;;;;;;5003190;28;20372;-85
2023/09/11 00:42:17;;;;;;;15.52;14.02;;;23.80;99.90;;;;;;5036315;28;20021;-84
2023/09/11 00:44:43;;;;;;;15.63;13.48;;;23.70;99.90;;;;;;5066592;28;20041;-85
2023/09/11 00:47:09;;;;;;;15.48;13.73;;;23.70;99.90;;;;;;5049212;28;20008;-85
2023/09/11 00:49:35;;;;;;;14.65;12.85;;;23.70;99.90;;;;;;5097972;28;20047;-83
2023/09/11 00:52:02;;;;;;;14.32;12.93;;;23.70;99.90;;;;;;5090989;28;20043;-84
2023/09/11 00:54:28;;;;;;;15.07;13.48;;;23.60;99.90;;;;;;5090101;28;20090;-84
2023/09/11 00:56:54;;;;;;;17.17;13.63;;;23.60;99.90;;;;;;5084948;28;20488;-83
2023/09/11 00:59:20;;;;;;;16.60;13.85;;;23.50;99.90;;;;;;5051834;28;20025;-85
2023/09/11 01:01:46;;;;;;;15.07;13.50;;;23.50;99.90;;;;;;5036574;28;20033;-85
2023/09/11 01:04:12;;;;;;;16.08;13.45;;;23.50;99.90;;;;;;5019485;28;20017;-85
2023/09/11 01:06:38;;;;;;;14.30;12.82;;;23.50;99.90;;;;;;5035544;28;20067;-84
2023/09/11 01:09:04;;;;;;;15.52;14.02;;;23.50;99.90;;;;;;5053005;28;20048;-85
2023/09/11 01:11:30;;;;;;;17.23;13.85;;;23.50;99.90;;;;;;5030660;28;20087;-85
2023/09/11 01:13:57;;;;;;;16.25;13.52;;;23.40;99.90;;;;;;5041340;28;20523;-85
2023/09/11 01:16:26;;;;;;;15.82;14.32;;;23.40;99.90;;;;;;5018645;28;20036;-85
2023/09/11 01:18:58;;;;;;;15.80;14.18;;;23.40;99.90;;;;;;5041882;28;20020;-84
2023/09/11 01:21:31;;;;;;;14.98;13.30;;;23.40;99.90;;;;;;5055194;28;20024;-85
2023/09/11 01:24:21;;;;;;;16.27;14.68;;;23.40;99.90;;;;;;5073035;28;20539;-85
2023/09/11 01:27:26;;;;;;;15.77;13.88;;;23.40;99.90;;;;;;5073142;28;20012;-85
2023/09/11 01:29:53;;;;;;;17.15;14.60;;;23.40;99.90;;;;;;5036631;28;20033;-85
2023/09/11 01:32:24;;;;;;;16.67;14.93;;;23.30;99.90;;;;;;5035237;28;20071;-84
2023/09/11 01:34:49;;;;;;;14.85;13.45;;;23.30;99.90;;;;;;5034890;28;20445;-85
2023/09/11 01:37:15;;;;;;;16.60;14.77;;;23.30;99.90;;;;;;5028517;28;20100;-85
2023/09/11 01:39:41;;;;;;;16.10;14.40;;;23.30;99.90;;;;;;5072949;28;20025;-85
2023/09/11 01:42:11;;;;;;;16.33;14.15;;;23.30;99.90;;;;;;5047742;28;20128;-85
2023/09/11 01:44:44;;;;;;;16.08;14.35;;;23.30;99.90;;;;;;5054841;28;20353;-85
2023/09/11 01:47:13;;;;;;;15.80;14.07;;;23.30;99.90;;;;;;5038696;28;20020;-85
2023/09/11 01:49:40;;;;;;;17.48;14.13;;;23.30;99.90;;;;;;5040310;28;20024;-85
2023/09/11 01:52:10;;;;;;;16.55;14.93;;;23.30;99.90;;;;;;5045172;28;20032;-85
2023/09/11 01:54:37;;;;;;;15.73;14.13;;;23.30;99.90;;;;;;5038469;28;20465;-84
2023/09/11 01:57:05;;;;;;;16.65;14.82;;;23.20;99.90;;;;;;5051412;28;20020;-84
2023/09/11 01:59:31;;;;;;;17.33;15.55;;;23.20;99.90;;;;;;5058435;28;20452;-85
2023/09/11 02:01:57;;;;;;;16.00;14.30;;;23.20;99.90;;;;;;5058358;28;20060;-85
2023/09/11 02:04:23;;;;;;;16.02;14.43;;;23.20;99.90;;;;;;5058719;28;20052;-85
2023/09/11 02:06:48;;;;;;;15.63;14.02;;;23.20;99.90;;;;;;5058344;28;20537;-85
2023/09/11 02:09:14;;;;;;;17.85;14.75;;;23.20;99.90;;;;;;5041773;28;20035;-85
2023/09/11 02:11:40;;;;;;;16.70;15.00;;;23.20;99.90;;;;;;5045227;28;20033;-85
2023/09/11 02:14:05;;;;;;;16.55;14.85;;;23.10;99.90;;;;;;5070727;28;20365;-85
2023/09/11 02:16:31;;;;;;;17.40;15.60;;;23.20;99.90;;;;;;5037939;28;20096;-85
2023/09/11 02:18:57;;;;;;;17.73;15.23;;;23.20;99.90;;;;;;5021509;28;20020;-85
2023/09/11 02:21:22;;;;;;;16.50;14.82;;;23.10;99.90;;;;;;5021726;28;20449;-85
2023/09/11 02:23:51;;;;;;;17.50;15.63;;;23.20;99.90;;;;;;5021497;28;20021;-86
2023/09/11 02:26:16;;;;;;;17.70;14.82;;;23.10;99.90;;;;;;5007987;28;20023;-85
2023/09/11 02:28:42;;;;;;;17.45;15.05;;;23.10;99.90;;;;;;5064944;28;20025;-85
2023/09/11 02:31:08;;;;;;;15.98;14.38;;;23.10;99.90;;;;;;5041027;28;20417;-86
2023/09/11 02:33:33;;;;;;;14.95;13.52;;;23.10;99.90;;;;;;5075694;28;20468;-85
2023/09/11 02:36:02;;;;;;;15.90;14.40;;;23.00;99.90;;;;;;5057811;28;20059;-85
2023/09/11 02:38:28;;;;;;;15.85;14.07;;;23.00;99.90;;;;;;5044441;28;20024;-84
2023/09/11 02:40:54;;;;;;;15.70;13.93;;;23.00;99.90;;;;;;5075888;28;20032;-85
2023/09/11 02:43:19;;;;;;;15.82;14.07;;;23.00;99.90;;;;;;5038166;28;20044;-86
2023/09/11 02:45:45;;;;;;;17.20;13.80;;;23.00;99.90;;;;;;5035237;28;20049;-85
2023/09/11 02:48:11;;;;;;;15.40;13.35;;;22.90;99.90;;;;;;5038377;28;20467;-86
2023/09/11 02:50:40;;;;;;;16.38;13.82;;;22.90;99.90;;;;;;5065821;28;20004;-85
2023/09/11 02:53:13;;;;;;;16.20;14.38;;;22.90;99.90;;;;;;5099320;28;20009;-85
2023/09/11 02:55:42;;;;;;;15.88;14.35;;;22.90;99.90;;;;;;5066496;28;20021;-83
2023/09/11 02:58:07;;;;;;;15.85;13.90;;;22.90;99.90;;;;;;5069377;28;20021;-85
2023/09/11 03:00:34;;;;;;;19.58;14.10;;;22.80;99.90;;;;;;5078654;28;20045;-84
2023/09/11 03:03:02;;;;;;;16.10;14.40;;;22.80;99.90;;;;;;5062777;28;20072;-85
2023/09/11 03:05:27;;;;;;;15.93;14.23;;;22.80;99.90;;;;;;5022436;28;20021;-85
2023/09/11 03:07:53;;;;;;;15.80;13.98;;;22.80;99.90;;;;;;5021135;28;20025;-85
2023/09/11 03:10:19;;;;;;;16.92;14.48;;;22.80;99.90;;;;;;5037940;28;20429;-85
2023/09/11 03:12:44;;;;;;;16.63;14.63;;;22.70;99.90;;;;;;5020915;28;20526;-84
2023/09/11 03:15:10;;;;;;;15.07;13.52;;;22.70;99.90;;;;;;5037085;28;20491;-84
2023/09/11 03:17:36;;;;;;;16.25;14.20;;;22.70;99.90;;;;;;5020663;28;20021;-85
2023/09/11 03:20:02;;;;;;;15.73;14.15;;;22.70;99.90;;;;;;5041554;28;20032;-85
2023/09/11 03:22:28;;;;;;;15.57;14.05;;;22.70;99.90;;;;;;5043369;28;20024;-85
2023/09/11 03:24:57;;;;;;;15.75;13.60;;;22.60;99.90;;;;;;5040009;28;20021;-83
2023/09/11 03:27:23;;;;;;;16.00;14.32;;;22.60;99.90;;;;;;5040609;28;20028;-85
2023/09/11 03:29:51;;;;;;;16.10;14.50;;;22.60;99.90;;;;;;5039983;28;20368;-85
2023/09/11 03:32:17;;;;;;;16.23;14.63;;;22.60;99.90;;;;;;5056153;28;20082;-85
2023/09/11 03:34:42;;;;;;;17.83;14.13;;;22.60;99.90;;;;;;5051634;28;20403;-85
2023/09/11 03:37:08;;;;;;;15.65;13.90;;;22.50;99.90;;;;;;5018389;28;20076;-84
2023/09/11 03:39:33;;;;;;;14.63;13.13;;;22.50;99.90;;;;;;5036815;28;20025;-85
2023/09/11 03:41:59;;;;;;;16.63;14.07;;;22.50;99.90;;;;;;5052524;28;20033;-85
2023/09/11 03:44:25;;;;;;;17.30;15.18;;;22.50;99.90;;;;;;5074521;28;20040;-85
2023/09/11 03:46:50;;;;;;;16.55;14.80;;;22.40;99.90;;;;;;5056561;28;20029;-85
2023/09/11 03:49:16;;;;;;;16.95;15.40;;;22.40;99.90;;;;;;5060083;28;20930;-85
2023/09/11 03:51:42;;;;;;;19.23;15.18;;;22.40;99.90;;;;;;5003506;28;20418;-85
2023/09/11 03:54:09;;;;;;;16.52;14.50;;;22.40;99.90;;;;;;5036204;28;20025;-85
2023/09/11 03:56:34;;;;;;;16.33;14.63;;;22.40;99.90;;;;;;5036617;28;20459;-85
2023/09/11 03:59:00;;;;;;;17.52;15.68;;;22.30;99.90;;;;;;5025770;28;20024;-85
2023/09/11 04:01:26;;;;;;;17.42;15.73;;;22.30;99.90;;;;;;5039446;28;20033;-85
2023/09/11 04:03:51;;;;;;;17.85;15.95;;;22.30;99.90;;;;;;5055244;28;20150;-84
2023/09/11 04:06:19;;;;;;;16.83;15.02;;;22.30;99.90;;;;;;5039324;28;20123;-85
2023/09/11 04:08:45;;;;;;;16.42;14.73;;;22.30;99.90;;;;;;5056548;28;20067;-85
2023/09/11 04:11:10;;;;;;;17.73;15.98;;;22.30;99.90;;;;;;5056133;28;20414;-85
2023/09/11 04:13:36;;;;;;;17.02;15.20;;;22.30;99.90;;;;;;5074117;28;20021;-85
2023/09/11 04:16:01;;;;;;;16.80;15.18;;;22.20;99.90;;;;;;5055994;28;20116;-85
2023/09/11 04:18:27;;;;;;;16.88;15.18;;;22.20;99.90;;;;;;5039721;28;20464;-85
2023/09/11 04:21:03;;;;;;;17.60;15.80;;;22.20;99.90;;;;;;5039830;28;20082;-84
2023/09/11 04:23:29;;;;;;;17.48;15.65;;;22.20;99.90;;;;;;5074306;28;20038;-84
2023/09/11 04:25:55;;;;;;;17.67;15.40;;;22.20;99.90;;;;;;5056245;28;20403;-84
2023/09/11 04:28:21;;;;;;;19.80;15.90;;;22.10;99.90;;;;;;5073890;28;21018;-84
2023/09/11 04:30:46;;;;;;;17.15;15.43;;;22.20;99.90;;;;;;5039122;28;20060;-85
2023/09/11 04:33:12;;;;;;;17.27;15.48;;;22.20;99.90;;;;;;5055847;28;20028;-85
2023/09/11 04:35:38;;;;;;;17.38;15.68;;;22.10;99.90;;;;;;5055978;28;20103;-85
2023/09/11 04:38:03;;;;;;;17.92;16.08;;;22.10;99.90;;;;;;5038948;28;20027;-85
2023/09/11 04:40:29;;;;;;;18.00;16.13;;;22.10;99.90;;;;;;5056119;28;20474;-84
2023/09/11 04:42:55;;;;;;;18.27;16.17;;;22.10;99.90;;;;;;5073667;28;20044;-85
2023/09/11 04:45:21;;;;;;;18.02;15.05;;;22.10;99.90;;;;;;5069759;28;20119;-83
2023/09/11 04:47:47;;;;;;;17.63;15.90;;;22.10;99.90;;;;;;5026660;28;20037;-84
2023/09/11 04:50:12;;;;;;;17.48;15.70;;;22.00;99.90;;;;;;5045337;28;20056;-84
2023/09/11 04:52:38;;;;;;;16.92;15.32;;;22.00;99.90;;;;;;5033618;28;20033;-84
2023/09/11 04:55:04;;;;;;;20.35;16.05;;;22.00;99.90;;;;;;5068473;28;20032;-83
2023/09/11 04:57:30;;;;;;;18.08;15.88;;;22.00;99.90;;;;;;5075983;28;20035;-84
2023/09/11 04:59:56;;;;;;;17.23;15.50;;;22.00;99.90;;;;;;5057331;28;20009;-84
2023/09/11 05:02:21;;;;;;;17.23;15.55;;;22.00;99.90;;;;;;5060206;28;20061;-84
2023/09/11 05:04:48;;;;;;;19.33;17.02;;;22.00;99.90;;;;;;5074579;28;20024;-77
2023/09/11 05:07:14;;;;;;;17.63;15.73;;;22.00;99.90;;;;;;5067643;28;20021;-85
2023/09/11 05:09:40;;;;;;;17.83;16.02;;;22.00;99.90;;;;;;5039768;28;20475;-84
2023/09/11 05:12:06;;;;;;;18.95;16.95;;;22.00;99.90;;;;;;5025594;28;20020;-84
2023/09/11 05:14:31;;;;;;;18.58;16.33;;;22.00;99.90;;;;;;5020130;28;20554;-84
2023/09/11 05:16:57;;;;;;;18.27;16.38;;;22.00;99.90;;;;;;5033703;28;20044;-84
2023/09/11 05:19:23;;;;;;;18.23;16.35;;;22.00;99.90;;;;;;5026298;28;20036;-85
2023/09/11 05:21:48;;;;;;;17.73;15.82;;;22.00;99.90;;;;;;5055391;28;20033;-84
2023/09/11 05:24:14;;;;;;;18.05;16.15;;;22.00;99.90;;;;;;5041587;28;20182;-84
2023/09/11 05:26:40;;;;;;;18.40;16.42;;;22.00;99.90;;;;;;5077232;28;20452;-84
2023/09/11 05:29:05;;;;;;;17.73;15.93;;;22.00;99.90;;;;;;5076860;28;20036;-84
2023/09/11 05:31:31;;;;;;;18.08;15.40;;;22.00;99.90;;;;;;5046087;28;20033;-84
2023/09/11 05:33:56;;;;;;;16.58;14.82;;;22.00;99.90;;;;;;5045038;28;20025;-84
2023/09/11 05:36:22;;;;;;;18.35;16.38;;;22.00;99.90;;;;;;5005871;28;20515;-84
2023/09/11 05:38:48;;;;;;;17.77;15.00;;;22.00;99.90;;;;;;5005834;28;20075;-84
2023/09/11 05:41:14;;;;;;;19.45;15.82;;;22.00;99.90;;;;;;5037495;28;20021;-84
2023/09/11 05:43:42;;;;;;;16.45;14.75;;;22.00;99.90;;;;;;5076520;28;20360;-84
2023/09/11 05:46:08;;;;;;;18.60;15.48;;;22.00;99.90;;;;;;5069061;28;20443;-85
2023/09/11 05:48:34;;;;;;;18.50;15.45;;;22.00;99.90;;;;;;5038932;28;20055;-85
2023/09/11 05:51:00;;;;;;;19.00;15.40;;;22.00;99.90;;;;;;5046751;28;20464;-84
2023/09/11 05:53:26;;;;;;;18.35;15.18;;;22.00;99.90;;;;;;5042479;28;20162;-85
2023/09/11 05:55:52;;;;;;;16.70;15.07;;;22.00;99.90;;;;;;5042142;28;20103;-84
2023/09/11 05:58:18;;;;;;;16.30;14.60;;;22.00;99.90;;;;;;5041699;28;20020;-84
2023/09/11 06:00:44;;;;;;;18.90;15.23;;;22.10;99.90;;;;;;5062404;28;20078;-84
2023/09/11 06:03:09;;;;;;;17.17;15.25;;;22.00;99.90;;;;;;5016381;28;20040;-84
2023/09/11 06:05:36;;;;;;;17.63;15.82;;;22.10;99.90;;;;;;5013594;28;20029;-84
2023/09/11 06:08:03;;;;;;;16.83;15.23;;;22.10;99.90;;;;;;5045537;28;20032;-85
2023/09/11 06:10:29;;;;;;;17.60;15.23;;;22.10;99.90;;;;;;5041500;28;20371;-84
2023/09/11 06:12:55;;;;;;;16.73;14.05;;;22.10;99.90;;;;;;5032442;28;20120;-84
2023/09/11 06:15:20;;;;;;;16.92;13.43;;;22.10;99.90;;;;;;5055974;28;20051;-84
2023/09/11 06:17:46;;;;;;;15.20;13.70;;;22.20;99.90;;;;;;5042481;28;20365;-84
2023/09/11 06:20:13;;;;;;;16.90;14.32;;;22.20;99.90;;;;;;5041448;28;20036;-84
2023/09/11 06:22:39;;;;;;;16.17;14.48;;;22.20;99.90;;;;;;5039760;28;20040;-84
2023/09/11 06:25:05;;;;;;;16.52;14.27;;;22.20;99.90;;;;;;5058067;28;20026;-84
2023/09/11 06:27:31;;;;;;;14.82;13.38;;;22.20;99.90;;;;;;5055028;28;20351;-84
2023/09/11 06:29:57;;;;;;;17.35;14.02;;;22.20;99.90;;;;;;5074282;28;20023;-84
2023/09/11 06:32:22;;;;;;;16.40;13.50;;;22.30;99.90;;;;;;5058163;28;20032;-84
2023/09/11 06:34:48;;;;;;;14.88;13.15;;;22.30;99.90;;;;;;5056672;28;20035;-84
2023/09/11 06:37:14;;;;;;;17.05;14.15;;;22.30;99.90;;;;;;5057737;28;20111;-84
2023/09/11 06:39:39;;;;;;;15.52;11.52;;;22.40;99.90;;;;;;5058044;28;20021;-84
2023/09/11 06:42:05;;;;;;;16.85;13.38;;;22.40;99.90;;;;;;5049030;28;20037;-85
2023/09/11 06:44:31;;;;;;;14.82;13.35;;;22.40;99.90;;;;;;5037659;28;20080;-84
2023/09/11 06:46:57;;;;;;;14.82;12.52;;;22.50;99.90;;;;;;5028075;28;20024;-85
2023/09/11 06:49:22;;;;;;;12.75;11.45;;;22.50;99.90;;;;;;5039685;28;20032;-84
2023/09/11 06:51:48;;;;;;;14.75;12.25;;;22.50;99.90;;;;;;5038363;28;20471;-84
2023/09/11 06:54:14;;;;;;;14.25;12.75;;;22.50;99.90;;;;;;5038486;28;20454;-84
2023/09/11 06:56:42;;;;;;;13.73;12.07;;;22.60;99.90;;;;;;5034126;28;20076;-84
2023/09/11 06:59:08;;;;;;;16.25;11.90;;;22.60;99.90;;;;;;5062514;28;21086;-84
2023/09/11 07:01:38;;;;;;;11.98;10.73;;;22.70;99.90;;;;;;5046164;28;20021;-83
2023/09/11 07:04:07;;;;;;;12.10;10.23;;;22.80;99.90;;;;;;5066209;28;20020;-82
2023/09/11 07:06:32;;;;;;;12.13;10.85;;;22.80;99.90;;;;;;5065685;28;20127;-82
2023/09/11 07:08:59;;;;;;;12.52;10.90;;;22.80;99.90;;;;;;5061367;28;20041;-85
2023/09/11 07:11:24;;;;;;;14.55;10.65;;;22.90;99.90;;;;;;5058163;28;20483;-84
2023/09/11 07:13:54;;;;;;;10.48;8.60;;;22.90;99.90;;;;;;5037908;28;20052;-85
2023/09/11 07:16:21;;;;;;;14.82;9.23;;;23.00;99.90;;;;;;5022151;28;20029;-85
2023/09/11 07:18:46;;;;;;;13.25;8.75;;;23.00;99.90;;;;;;5037443;28;20453;-84
2023/09/11 07:21:13;;;;;;;9.88;8.65;;;23.10;99.90;;;;;;5020538;28;20051;-85
2023/09/11 07:23:38;;;;;;;12.07;9.18;;;23.20;99.90;;;;;;5029564;28;20119;-85
2023/09/11 07:26:04;;;;;;;9.80;7.97;;;23.20;99.90;;;;;;5039671;28;20062;-85
2023/09/11 07:28:29;;;;;;;11.00;8.48;;;23.30;99.90;;;;;;5023466;28;20274;-85
2023/09/11 07:30:55;;;;;;;12.23;8.70;;;23.30;99.90;;;;;;5040219;28;20048;-85
2023/09/11 07:33:21;;;;;;;10.40;8.68;;;23.30;99.90;;;;;;5056871;28;20448;-83
2023/09/11 07:35:47;;;;;;;14.25;8.25;;;23.40;99.90;;;;;;5056564;28;20345;-84
2023/09/11 07:38:12;;;;;;;8.93;7.07;;;23.50;99.90;;;;;;5056598;28;20357;-84
2023/09/11 07:40:38;;;;;;;10.90;8.27;;;23.50;99.90;;;;;;5070380;28;20035;-85
2023/09/11 07:43:04;;;;;;;9.98;8.85;;;23.60;99.90;;;;;;5055154;28;20423;-85
2023/09/11 07:45:30;;;;;;;9.77;8.18;;;23.60;99.90;;;;;;5054283;28;20122;-85
2023/09/11 07:47:56;;;;;;;9.25;8.27;;;23.70;99.90;;;;;;5036411;28;20029;-85
2023/09/11 07:50:22;;;;;;;9.88;8.88;;;23.70;99.90;;;;;;5036655;28;20025;-85
2023/09/11 07:52:47;;;;;;;13.43;8.77;;;23.80;99.90;;;;;;5050290;28;20028;-84
2023/09/11 07:55:14;;;;;;;12.10;8.38;;;23.80;99.90;;;;;;5056326;28;20467;-85
2023/09/11 07:57:40;;;;;;;9.43;7.60;;;23.80;99.90;;;;;;5037990;28;20399;-85
2023/09/11 08:00:07;;;;;;;9.23;8.32;;;23.90;99.90;;;;;;5056317;28;20028;-84
2023/09/11 08:02:33;;;;;;;9.75;8.07;;;23.90;99.90;;;;;;5050703;28;20115;-84
2023/09/11 08:04:59;;;;;;;13.77;9.40;;;23.90;99.90;;;;;;5036124;28;20121;-85
2023/09/11 08:07:25;;;;;;;9.88;8.80;;;24.00;99.90;;;;;;5036232;28;20055;-84
2023/09/11 08:09:54;;;;;;;14.27;9.63;;;24.00;99.90;;;;;;5056149;28;20031;-85
2023/09/11 08:12:20;;;;;;;11.13;9.10;;;24.00;99.90;;;;;;5073849;28;20448;-85
2023/09/11 08:14:46;;;;;;;12.57;9.05;;;24.00;99.90;;;;;;5038729;28;20035;-84
2023/09/11 08:17:12;;;;;;;10.73;9.35;;;24.00;99.90;;;;;;5035695;28;20032;-84
2023/09/11 08:19:38;;;;;;;11.70;10.02;;;24.10;99.90;;;;;;5051373;28;20078;-85
2023/09/11 08:22:04;;;;;;;11.18;9.05;;;24.10;99.90;;;;;;5067696;28;20372;-85
2023/09/11 08:24:29;;;;;;;10.15;8.18;;;24.10;99.90;;;;;;5035571;28;20040;-85
2023/09/11 08:26:56;;;;;;;11.25;9.40;;;24.20;99.90;;;;;;5035998;28;20132;-85
2023/09/11 08:29:21;;;;;;;11.70;9.48;;;24.30;99.90;;;;;;5055653;28;20471;-85
2023/09/11 08:31:47;;;;;;;12.20;8.32;;;24.30;99.90;;;;;;5055564;28;20032;-85
2023/09/11 08:34:13;;;;;;;9.35;8.32;;;24.40;99.90;;;;;;5058409;28;20043;-86
2023/09/11 08:36:39;;;;;;;11.15;8.25;;;24.40;99.90;;;;;;5033578;28;20077;-85
2023/09/11 08:39:05;;;;;;;12.13;9.02;;;24.40;99.90;;;;;;5050540;28;20021;-85
2023/09/11 08:41:31;;;;;;;10.63;8.38;;;24.50;99.90;;;;;;5055777;28;20391;-85
2023/09/11 08:43:57;;;;;;;12.25;8.32;;;24.50;99.90;;;;;;5055813;28;20045;-85
2023/09/11 08:46:23;;;;;;;10.60;8.30;;;24.60;99.90;;;;;;5055708;28;20020;-85
2023/09/11 08:48:53;;;;;;;8.77;7.20;;;24.60;99.90;;;;;;5055670;28;20367;-85
2023/09/11 08:51:24;;;;;;;10.15;8.75;;;24.70;99.90;;;;;;5027704;28;20074;-85
2023/09/11 08:53:56;;;;;;;13.13;8.43;;;24.70;99.90;;;;;;5054160;28;20683;-85
2023/09/11 08:56:22;;;;;;;9.65;8.25;;;24.80;99.90;;;;;;5053814;28;20043;-85
2023/09/11 08:58:51;;;;;;;10.20;8.60;;;24.90;99.90;;;;;;5036736;28;20563;-85
2023/09/11 09:01:19;;;;;;;9.35;8.38;;;24.90;99.90;;;;;;5043315;28;20025;-85
2023/09/11 09:03:46;;;;;;;10.80;8.73;;;25.00;99.90;;;;;;5069577;28;20013;-84
2023/09/11 09:06:12;;;;;;;11.35;8.48;;;25.00;99.90;;;;;;5097884;28;20017;-85
2023/09/11 09:08:38;;;;;;;10.27;8.07;;;25.00;99.90;;;;;;5063611;28;20024;-85
2023/09/11 09:11:04;;;;;;;12.00;9.38;;;25.10;99.90;;;;;;5074709;28;20020;-83
2023/09/11 09:13:35;;;;;;;12.02;10.02;;;25.10;99.90;;;;;;5058908;28;20252;-82
2023/09/11 09:16:01;;;;;;;12.43;9.30;;;25.20;99.90;;;;;;5050387;28;20020;-85
2023/09/11 09:18:26;;;;;;;14.75;10.27;;;25.20;99.90;;;;;;5073747;28;20533;-85
2023/09/11 09:20:52;;;;;;;11.30;9.02;;;25.20;99.90;;;;;;5038647;28;20055;-85
2023/09/11 09:23:18;;;;;;;12.52;9.45;;;25.30;99.90;;;;;;5073102;28;20063;-85
2023/09/11 09:25:43;;;;;;;14.70;8.82;;;25.30;99.90;;;;;;5048066;28;20021;-84
2023/09/11 09:28:28;;;;;;;10.85;8.25;;;25.40;99.80;;;;;;5038562;28;20372;-85
2023/09/11 09:30:56;;;;;;;11.68;8.73;;;25.40;99.70;;;;;;5023794;28;20609;-85
2023/09/11 09:33:22;;;;;;;9.60;8.60;;;25.50;99.90;;;;;;5038636;28;20024;-84
2023/09/11 09:35:48;;;;;;;13.63;9.02;;;25.50;99.60;;;;;;5046116;28;20029;-85
2023/09/11 09:38:18;;;;;;;10.65;8.98;;;25.50;99.60;;;;;;5035422;28;20120;-85
2023/09/11 09:40:44;;;;;;;9.98;8.95;;;25.60;99.80;;;;;;5035904;28;20028;-85
2023/09/11 09:43:16;;;;;;;9.52;8.55;;;25.70;99.50;;;;;;5051780;28;20033;-85
2023/09/11 09:45:42;;;;;;;11.68;9.18;;;25.70;99.50;;;;;;5054416;28;20041;-85
2023/09/11 09:48:09;;;;;;;12.43;9.38;;;25.70;99.50;;;;;;5072790;28;20415;-85
2023/09/11 09:50:54;;;;;;;12.15;8.85;;;25.70;99.40;;;;;;5054953;28;20091;-85
2023/09/11 09:53:30;;;;;;;10.82;9.05;;;25.80;99.30;;;;;;5039275;28;20476;-86
2023/09/11 09:55:59;;;;;;;9.88;8.98;;;25.80;99.30;;;;;;5054653;28;20829;-85
2023/09/11 09:58:28;;;;;;;9.35;8.43;;;25.80;99.30;;;;;;5053245;28;20024;-86
2023/09/11 10:00:58;;;;;;;10.07;8.50;;;25.90;99.30;;;;;;5037318;28;20019;-86
2023/09/11 10:03:25;;;;;;;10.25;7.40;;;26.00;99.20;;;;;;5052531;28;20051;-85
2023/09/11 10:05:51;;;;;;;9.88;7.88;;;26.00;99.20;;;;;;5052576;28;20516;-85
2023/09/11 10:08:16;;;;;;;10.73;8.85;;;26.10;99.20;;;;;;5047093;28;20112;-85
2023/09/11 10:10:42;;;;;;;10.82;7.45;;;26.10;99.10;;;;;;5073962;28;20411;-85
2023/09/11 10:13:10;;;;;;;9.07;7.38;;;26.10;99.00;;;;;;5041676;28;20479;-85
2023/09/11 10:15:38;;;;;;;8.55;7.57;;;26.20;99.00;;;;;;5057120;28;20075;-85
2023/09/11 10:18:05;;;;;;;10.23;6.50;;;26.20;99.00;;;;;;5038370;28;20052;-85
2023/09/11 10:20:31;;;;;;;9.05;7.13;;;26.20;98.90;;;;;;5051482;28;20040;-85
2023/09/11 10:22:59;;;;;;;8.50;7.13;;;26.30;98.90;;;;;;5041142;28;20033;-85
2023/09/11 10:25:27;;;;;;;9.07;7.43;;;26.40;98.80;;;;;;5044339;28;20021;-85
2023/09/11 10:28:02;;;;;;;8.65;6.90;;;26.40;98.60;;;;;;5037717;28;20027;-85
2023/09/11 10:30:52;;;;;;;8.02;6.13;;;26.50;98.40;;;;;;5067779;28;20028;-85
2023/09/11 10:33:25;;;;;;;7.38;5.25;;;26.50;98.30;;;;;;5007655;28;20028;-85
2023/09/11 10:35:56;;;;;;;7.47;5.65;;;26.50;98.60;;;;;;5057537;28;20048;-85
2023/09/11 10:38:22;;;;;;;7.25;5.72;;;26.60;98.30;;;;;;5075950;28;20108;-85
2023/09/11 10:40:49;;;;;;;6.80;5.50;;;26.60;98.20;;;;;;5040871;28;20412;-85
2023/09/11 10:43:15;;;;;;;8.07;5.43;;;26.70;98.10;;;;;;5060594;28;20125;-85
2023/09/11 10:45:41;;;;;;;6.03;4.60;;;26.70;97.90;;;;;;5037480;28;20127;-85
2023/09/11 10:48:26;;;;;;;5.25;4.65;;;26.70;97.80;;;;;;5074090;28;20477;-85
2023/09/11 10:50:52;;;;;;;5.60;5.10;;;26.80;97.60;;;;;;5057572;28;20356;-85
2023/09/11 10:53:17;;;;;;;6.60;4.78;;;26.80;97.60;;;;;;5075545;28;20057;-85
2023/09/11 10:55:43;;;;;;;5.18;4.68;;;26.80;97.60;;;;;;5057733;28;20032;-85
2023/09/11 10:58:09;;;;;;;8.57;4.95;;;26.90;97.60;;;;;;5056547;28;20021;-85
2023/09/11 11:00:38;;;;;;;8.15;4.40;;;26.90;97.40;;;;;;5038715;28;20064;-85
2023/09/11 11:03:05;;;;;;;4.45;4.00;;;27.00;97.20;;;;;;5075503;28;20029;-85
2023/09/11 11:05:36;;;;;;;7.03;4.10;;;27.00;97.00;;;;;;5057883;28;20462;-85
2023/09/11 11:08:02;;;;;;;6.53;4.38;;;27.10;96.80;;;;;;5057497;28;20038;-85
2023/09/11 11:10:28;;;;;;;5.22;4.32;;;27.10;96.70;;;;;;5024946;28;20031;-86
2023/09/11 11:13:08;;;;;;;5.78;4.22;;;27.10;96.70;;;;;;5068840;28;20005;-85
2023/09/11 11:15:34;;;;;;;7.07;4.43;;;27.20;96.40;;;;;;5096411;28;20017;-85
2023/09/11 11:18:26;;;;;;;5.00;4.30;;;27.20;96.40;;;;;;5062915;28;20035;-85
2023/09/11 11:21:04;;;;;;;6.28;4.13;;;27.30;96.20;;;;;;5045135;28;20052;-85
2023/09/11 11:23:32;;;;;;;5.38;4.32;;;27.30;96.30;;;;;;5092620;28;20038;-85
2023/09/11 11:26:04;;;;;;;6.22;4.65;;;27.30;96.30;;;;;;5095233;28;20024;-85
2023/09/11 11:28:41;;;;;;;5.63;4.65;;;27.40;96.10;;;;;;5057281;28;20035;-85
2023/09/11 11:31:09;;;;;;;7.47;4.93;;;27.40;96.10;;;;;;5024452;28;20559;-85
2023/09/11 11:33:39;;;;;;;6.72;4.90;;;27.40;96.10;;;;;;5057520;28;20020;-85
2023/09/11 11:36:10;;;;;;;6.50;4.95;;;27.50;96.10;;;;;;5027979;28;20025;-85
2023/09/11 11:38:38;;;;;;;6.22;5.15;;;27.60;96.10;;;;;;5056230;28;20040;-85
2023/09/11 11:41:07;;;;;;;6.45;4.55;;;27.60;96.20;;;;;;5074507;28;20031;-85
2023/09/11 11:43:34;;;;;;;5.20;4.70;;;27.60;96.20;;;;;;5056923;28;20028;-84
2023/09/11 11:46:00;;;;;;;6.90;4.85;;;27.60;96.10;;;;;;5043233;28;20345;-86
2023/09/11 11:48:28;;;;;;;6.30;4.72;;;27.70;96.10;;;;;;5020210;28;20411;-84
2023/09/11 11:50:55;;;;;;;5.93;4.90;;;27.70;96.00;;;;;;5050845;28;20036;-85
2023/09/11 11:53:23;;;;;;;5.75;4.85;;;27.70;96.00;;;;;;5074181;28;20028;-85
2023/09/11 11:55:50;;;;;;;5.25;4.72;;;27.80;96.00;;;;;;5062379;28;20449;-85
2023/09/11 11:58:16;;;;;;;6.40;5.28;;;27.90;96.00;;;;;;5053777;28;20108;-84
2023/09/11 12:00:59;;;;;;;9.30;5.15;;;27.90;95.90;;;;;;5036412;28;20112;-84
2023/09/11 12:03:26;;;;;;;5.78;4.78;;;27.90;95.80;;;;;;5036441;28;20411;-85
2023/09/11 12:05:52;;;;;;;6.95;4.45;;;27.90;95.80;;;;;;5062085;28;20033;-84
2023/09/11 12:08:18;;;;;;;7.97;4.95;;;28.00;95.70;;;;;;5074040;28;20024;-85
2023/09/11 12:10:45;;;;;;;6.30;4.32;;;28.00;95.60;;;;;;5074095;28;20032;-85
2023/09/11 12:13:20;;;;;;;5.95;4.78;;;28.00;95.60;;;;;;5039494;28;20367;-85
2023/09/11 12:15:56;;;;;;;5.57;4.88;;;28.00;95.40;;;;;;5036026;28;20441;-85
2023/09/11 12:18:23;;;;;;;5.55;4.90;;;28.10;95.40;;;;;;5036846;28;20155;-85
2023/09/11 12:21:00;;;;;;;7.55;5.07;;;28.10;95.40;;;;;;5023554;28;20013;-84
2023/09/11 12:23:25;;;;;;;5.72;4.88;;;28.10;95.40;;;;;;5053881;28;20025;-85
2023/09/11 12:25:51;;;;;;;5.63;4.75;;;28.10;95.30;;;;;;5043920;28;20039;-85
2023/09/11 12:28:21;;;;;;;8.60;5.40;;;28.20;95.30;;;;;;5022352;28;20028;-85
2023/09/11 12:30:48;;;;;;;5.93;5.15;;;28.20;95.30;;;;;;5035915;28;20401;-85
2023/09/11 12:33:16;;;;;;;8.00;6.18;;;28.20;95.30;;;;;;5036410;28;20025;-85